Terminal Aerodrome Forecast
Issued by NWS Sterling, VA

Current Version | Previous Version | Text Only | Print | Product List | Glossary Off
Versions: 1 2 3 4 5 6 7 8 9 10 11 12 13 14 15 16 17 18 19 20

000
FTUS41 KLWX 211453 AAA
TAFMRB
TAF AMD
KMRB 211453Z 2115/2212 03005KT 5SM -RA OVC025
     FM212000 VRB03KT P6SM BKN035
     FM220400 31006KT P6SM SCT120=

USA.gov is the U.S. government's official web portal to all federal, state and local government web resources and services.